ELY034 LLBG-EHAM
Flight info
| Callsign | ELY034 |
|---|---|
| Flight time | 4h 4m |
| Altitude | 32000 |
| Route | MERVA P68 APLON L609 ALKIS UL609 MES UG18 GIKAS UN133 PEREN UL863 EVIVI DCT OKANA DCT XENIT DCT BABIT DCT ARSIN DCT DITIS DCT IPDUL DCT RAPET T843 DEMAB L604 BIGGE DCT NORKU |
| Aircraft | B748/H-SDE1E2E3FGHIJ2J3J4J5M1RWXY/LB1D1 |
Departure
| Time | 2026-05-04 12:56 |
|---|---|
| Airport | Ben Gurion International Airport (LLBG) |
Arrival
| Time | 2026-05-04 17:00 |
|---|---|
| Airport | Amsterdam Airport Schiphol (EHAM) |
| Time | Latitude | Longitude | Altitude | Speed | Heading |
|---|---|---|---|---|---|
| 2026-05-04 12:09 | 32.00114 | 34.87502 | 126 ft | 0 kts | 303° |
| 2026-05-04 12:22 | 32.00114 | 34.87503 | 126 ft | 0 kts | 303° |
| 2026-05-04 12:32 | 32.00113 | 34.87503 | 126 ft | 0 kts | 303° |
| 2026-05-04 12:39 | 32.00113 | 34.87504 | 126 ft | 0 kts | 303° |
| 2026-05-04 12:40 | 32.00109 | 34.87510 | 121 ft | 3 kts | 303° |
| 2026-05-04 12:40 | 32.00098 | 34.87531 | 121 ft | 3 kts | 320° |
| 2026-05-04 12:41 | 32.00080 | 34.87542 | 121 ft | 3 kts | 2° |
| 2026-05-04 12:41 | 32.00060 | 34.87540 | 121 ft | 3 kts | 27° |
| 2026-05-04 12:41 | 32.00054 | 34.87537 | 121 ft | 0 kts | 30° |
| 2026-05-04 12:45 | 32.00054 | 34.87536 | 121 ft | 0 kts | 30° |
| 2026-05-04 12:46 | 32.00053 | 34.87536 | 121 ft | 0 kts | 30° |
| 2026-05-04 12:47 | 32.00054 | 34.87536 | 121 ft | 0 kts | 30° |
| 2026-05-04 12:48 | 32.00054 | 34.87537 | 121 ft | 1 kts | 30° |
| 2026-05-04 12:48 | 32.00071 | 34.87547 | 121 ft | 5 kts | 27° |
| 2026-05-04 12:48 | 32.00111 | 34.87570 | 121 ft | 8 kts | 27° |
| 2026-05-04 12:48 | 32.00160 | 34.87604 | 123 ft | 8 kts | 32° |
| 2026-05-04 12:49 | 32.00208 | 34.87640 | 123 ft | 8 kts | 31° |
| 2026-05-04 12:49 | 32.00257 | 34.87677 | 123 ft | 8 kts | 33° |
| 2026-05-04 12:49 | 32.00306 | 34.87715 | 121 ft | 9 kts | 33° |
| 2026-05-04 12:49 | 32.00357 | 34.87754 | 121 ft | 9 kts | 32° |
| 2026-05-04 12:50 | 32.00410 | 34.87791 | 122 ft | 9 kts | 30° |
| 2026-05-04 12:50 | 32.00465 | 34.87828 | 121 ft | 9 kts | 32° |
| 2026-05-04 12:50 | 32.00518 | 34.87869 | 123 ft | 10 kts | 32° |
| 2026-05-04 12:50 | 32.00576 | 34.87910 | 122 ft | 10 kts | 30° |
| 2026-05-04 12:51 | 32.00638 | 34.87955 | 122 ft | 12 kts | 32° |
| 2026-05-04 12:51 | 32.00733 | 34.88022 | 123 ft | 20 kts | 31° |
| 2026-05-04 12:51 | 32.00855 | 34.88108 | 123 ft | 21 kts | 31° |
| 2026-05-04 12:51 | 32.00982 | 34.88197 | 123 ft | 22 kts | 32° |
| 2026-05-04 12:52 | 32.01110 | 34.88295 | 121 ft | 22 kts | 32° |
| 2026-05-04 12:52 | 32.01236 | 34.88390 | 123 ft | 21 kts | 33° |
| 2026-05-04 12:52 | 32.01348 | 34.88503 | 124 ft | 21 kts | 47° |
| 2026-05-04 12:52 | 32.01434 | 34.88642 | 124 ft | 21 kts | 58° |
| 2026-05-04 12:53 | 32.01483 | 34.88794 | 124 ft | 19 kts | 76° |
| 2026-05-04 12:53 | 32.01514 | 34.88948 | 123 ft | 19 kts | 77° |
| 2026-05-04 12:53 | 32.01538 | 34.89092 | 126 ft | 14 kts | 76° |
| 2026-05-04 12:53 | 32.01589 | 34.89162 | 123 ft | 7 kts | 18° |
| 2026-05-04 12:54 | 32.01620 | 34.89158 | 121 ft | 6 kts | 345° |
| 2026-05-04 12:54 | 32.01685 | 34.89141 | 122 ft | 13 kts | 349° |
| 2026-05-04 12:54 | 32.01734 | 34.89109 | 113 ft | 1 kts | 294° |
| 2026-05-04 12:54 | 32.01735 | 34.89072 | 122 ft | 22 kts | 272° |
| 2026-05-04 12:55 | 32.01675 | 34.88599 | 123 ft | 93 kts | 260° |
| 2026-05-04 12:55 | 32.01525 | 34.87615 | 130 ft | 149 kts | 259° |
| 2026-05-04 12:55 | 32.01265 | 34.86397 | 264 ft | 151 kts | 251° |
| 2026-05-04 12:55 | 32.00932 | 34.85111 | 661 ft | 175 kts | 257° |
| 2026-05-04 12:56 | 32.00691 | 34.83697 | 1676 ft | 176 kts | 256° |
| 2026-05-04 12:56 | 32.00344 | 34.82261 | 2557 ft | 192 kts | 251° |
| 2026-05-04 12:56 | 31.99945 | 34.80681 | 3229 ft | 200 kts | 261° |
| 2026-05-04 12:56 | 31.99782 | 34.79035 | 3830 ft | 214 kts | 263° |
| 2026-05-04 12:57 | 31.99515 | 34.77267 | 4395 ft | 219 kts | 258° |
| 2026-05-04 12:57 | 31.99230 | 34.75464 | 4794 ft | 227 kts | 270° |
| 2026-05-04 12:57 | 31.99531 | 34.73635 | 5321 ft | 230 kts | 286° |
| 2026-05-04 12:57 | 31.99987 | 34.71811 | 5842 ft | 233 kts | 282° |
| 2026-05-04 12:58 | 32.00393 | 34.69953 | 6428 ft | 236 kts | 282° |
| 2026-05-04 12:58 | 32.00831 | 34.68061 | 6870 ft | 242 kts | 283° |
| 2026-05-04 12:58 | 32.01293 | 34.66136 | 7640 ft | 245 kts | 283° |
| 2026-05-04 12:58 | 32.01751 | 34.64221 | 8511 ft | 247 kts | 283° |
| 2026-05-04 12:59 | 32.02062 | 34.62904 | 9119 ft | 248 kts | 283° |
| 2026-05-04 12:59 | 32.02526 | 34.60940 | 9964 ft | 250 kts | 284° |
| 2026-05-04 12:59 | 32.02994 | 34.58961 | 10724 ft | 251 kts | 283° |
| 2026-05-04 12:59 | 32.03465 | 34.56968 | 11484 ft | 253 kts | 283° |
| 2026-05-04 13:00 | 32.03939 | 34.54962 | 12203 ft | 257 kts | 283° |
| 2026-05-04 13:00 | 32.04428 | 34.52880 | 12602 ft | 272 kts | 283° |
| 2026-05-04 13:00 | 32.04949 | 34.50662 | 12914 ft | 289 kts | 283° |
| 2026-05-04 13:00 | 32.05492 | 34.48364 | 13446 ft | 298 kts | 283° |
| 2026-05-04 13:01 | 32.06053 | 34.45987 | 14122 ft | 302 kts | 283° |
| 2026-05-04 13:01 | 32.06618 | 34.43583 | 14822 ft | 304 kts | 283° |
| 2026-05-04 13:01 | 32.07183 | 34.41179 | 15551 ft | 304 kts | 282° |
| 2026-05-04 13:01 | 32.07746 | 34.38777 | 16281 ft | 304 kts | 282° |
| 2026-05-04 13:02 | 32.08311 | 34.36368 | 17022 ft | 305 kts | 282° |
| 2026-05-04 13:02 | 32.08872 | 34.33962 | 17745 ft | 304 kts | 281° |
| 2026-05-04 13:02 | 32.09428 | 34.31550 | 18433 ft | 305 kts | 281° |
| 2026-05-04 13:02 | 32.09995 | 34.29141 | 19016 ft | 306 kts | 281° |
| 2026-05-04 13:03 | 32.10564 | 34.26719 | 19579 ft | 307 kts | 281° |
| 2026-05-04 13:03 | 32.11131 | 34.24289 | 20125 ft | 308 kts | 281° |
| 2026-05-04 13:03 | 32.11701 | 34.21843 | 20653 ft | 310 kts | 281° |
| 2026-05-04 13:03 | 32.12272 | 34.19391 | 21164 ft | 311 kts | 281° |
| 2026-05-04 13:04 | 32.12845 | 34.16919 | 21669 ft | 313 kts | 281° |
| 2026-05-04 13:04 | 32.13418 | 34.14462 | 22156 ft | 315 kts | 281° |
| 2026-05-04 13:04 | 32.13999 | 34.11965 | 22630 ft | 316 kts | 281° |
| 2026-05-04 13:04 | 32.14583 | 34.09456 | 23104 ft | 318 kts | 281° |
| 2026-05-04 13:05 | 32.15169 | 34.06932 | 23580 ft | 320 kts | 280° |
| 2026-05-04 13:05 | 32.15756 | 34.04393 | 23950 ft | 321 kts | 280° |
| 2026-05-04 13:05 | 32.16359 | 34.01846 | 24300 ft | 324 kts | 283° |
| 2026-05-04 13:05 | 32.17201 | 33.99356 | 24655 ft | 330 kts | 289° |
| 2026-05-04 13:06 | 32.18339 | 33.96970 | 24998 ft | 337 kts | 295° |
| 2026-05-04 13:06 | 32.19705 | 33.94692 | 25323 ft | 341 kts | 297° |
| 2026-05-04 13:06 | 32.21080 | 33.92407 | 25626 ft | 342 kts | 296° |
| 2026-05-04 13:06 | 32.22457 | 33.90112 | 25917 ft | 344 kts | 297° |
| 2026-05-04 13:07 | 32.23850 | 33.87799 | 25978 ft | 345 kts | 297° |
| 2026-05-04 13:07 | 32.25234 | 33.85511 | 25980 ft | 342 kts | 297° |
| 2026-05-04 13:07 | 32.26611 | 33.83221 | 25982 ft | 342 kts | 296° |
| 2026-05-04 13:07 | 32.27992 | 33.80920 | 25984 ft | 346 kts | 297° |
| 2026-05-04 13:08 | 32.29393 | 33.78573 | 26002 ft | 363 kts | 297° |
| 2026-05-04 13:08 | 32.30891 | 33.76071 | 26002 ft | 382 kts | 297° |
| 2026-05-04 13:08 | 32.32471 | 33.73446 | 26007 ft | 401 kts | 298° |
| 2026-05-04 13:08 | 32.34099 | 33.70747 | 26001 ft | 405 kts | 298° |
| 2026-05-04 13:09 | 32.35734 | 33.68029 | 25991 ft | 406 kts | 298° |
| 2026-05-04 13:09 | 32.37366 | 33.65301 | 26001 ft | 406 kts | 298° |
| 2026-05-04 13:09 | 32.38996 | 33.62573 | 25991 ft | 405 kts | 298° |
| 2026-05-04 13:09 | 32.40623 | 33.59854 | 25991 ft | 405 kts | 298° |
| 2026-05-04 13:10 | 32.42253 | 33.57129 | 25990 ft | 405 kts | 298° |
| 2026-05-04 13:10 | 32.43880 | 33.54405 | 25990 ft | 405 kts | 298° |
| 2026-05-04 13:10 | 32.45505 | 33.51682 | 25980 ft | 405 kts | 298° |
| 2026-05-04 13:10 | 32.47131 | 33.48954 | 25985 ft | 405 kts | 298° |
| 2026-05-04 13:11 | 32.48755 | 33.46229 | 25983 ft | 405 kts | 298° |
| 2026-05-04 13:11 | 32.50384 | 33.43494 | 25976 ft | 405 kts | 298° |
| 2026-05-04 13:11 | 32.52008 | 33.40765 | 25982 ft | 405 kts | 298° |
| 2026-05-04 13:11 | 32.53614 | 33.38064 | 25984 ft | 405 kts | 298° |
| 2026-05-04 13:12 | 32.55240 | 33.35328 | 25982 ft | 405 kts | 298° |
| 2026-05-04 13:12 | 32.56861 | 33.32598 | 25978 ft | 405 kts | 298° |
| 2026-05-04 13:12 | 32.58482 | 33.29866 | 25968 ft | 405 kts | 298° |
| 2026-05-04 13:12 | 32.60100 | 33.27138 | 25976 ft | 405 kts | 298° |
| 2026-05-04 13:13 | 32.61720 | 33.24403 | 25970 ft | 405 kts | 298° |
| 2026-05-04 13:13 | 32.63342 | 33.21664 | 25975 ft | 405 kts | 298° |
| 2026-05-04 13:13 | 32.64964 | 33.18923 | 25977 ft | 405 kts | 298° |
| 2026-05-04 13:13 | 32.66583 | 33.16184 | 25979 ft | 405 kts | 298° |
| 2026-05-04 13:14 | 32.68200 | 33.13446 | 25973 ft | 405 kts | 298° |
| 2026-05-04 13:14 | 32.69818 | 33.10705 | 25973 ft | 405 kts | 298° |
| 2026-05-04 13:14 | 32.71438 | 33.07960 | 25976 ft | 405 kts | 298° |
| 2026-05-04 13:14 | 32.73037 | 33.05247 | 25975 ft | 405 kts | 298° |
| 2026-05-04 13:15 | 32.74653 | 33.02504 | 25975 ft | 405 kts | 298° |
| 2026-05-04 13:15 | 32.76266 | 32.99764 | 25975 ft | 405 kts | 298° |
| 2026-05-04 13:15 | 32.77880 | 32.97020 | 25972 ft | 405 kts | 298° |
| 2026-05-04 13:15 | 32.79490 | 32.94281 | 25969 ft | 405 kts | 298° |
| 2026-05-04 13:16 | 32.81103 | 32.91535 | 25971 ft | 404 kts | 298° |
| 2026-05-04 13:16 | 32.82712 | 32.88793 | 25993 ft | 404 kts | 298° |
| 2026-05-04 13:16 | 32.84317 | 32.86059 | 26243 ft | 405 kts | 298° |
| 2026-05-04 13:16 | 32.85930 | 32.83302 | 26492 ft | 405 kts | 298° |
| 2026-05-04 13:17 | 32.87545 | 32.80545 | 26753 ft | 407 kts | 298° |
| 2026-05-04 13:17 | 32.89163 | 32.77781 | 27009 ft | 408 kts | 298° |
| 2026-05-04 13:17 | 32.90788 | 32.75003 | 27264 ft | 409 kts | 298° |
| 2026-05-04 13:17 | 32.92416 | 32.72214 | 27531 ft | 411 kts | 298° |
| 2026-05-04 13:18 | 32.94029 | 32.69452 | 27804 ft | 412 kts | 298° |
| 2026-05-04 13:18 | 32.95663 | 32.66653 | 28054 ft | 413 kts | 298° |
| 2026-05-04 13:18 | 32.97306 | 32.63834 | 28317 ft | 414 kts | 298° |
| 2026-05-04 13:18 | 32.98956 | 32.61003 | 28600 ft | 415 kts | 298° |
| 2026-05-04 13:19 | 33.00607 | 32.58167 | 28878 ft | 417 kts | 298° |
| 2026-05-04 13:19 | 33.02262 | 32.55320 | 29149 ft | 418 kts | 298° |
| 2026-05-04 13:19 | 33.03923 | 32.52461 | 29429 ft | 420 kts | 298° |
| 2026-05-04 13:19 | 33.05584 | 32.49604 | 29708 ft | 420 kts | 298° |
| 2026-05-04 13:20 | 33.07241 | 32.46751 | 29993 ft | 418 kts | 298° |
| 2026-05-04 13:20 | 33.08898 | 32.43892 | 30226 ft | 417 kts | 298° |
| 2026-05-04 13:20 | 33.10550 | 32.41040 | 30466 ft | 418 kts | 298° |
| 2026-05-04 13:20 | 33.12179 | 32.38226 | 30696 ft | 418 kts | 298° |
| 2026-05-04 13:21 | 33.13830 | 32.35374 | 30927 ft | 417 kts | 298° |
| 2026-05-04 13:21 | 33.15480 | 32.32520 | 31171 ft | 417 kts | 298° |
| 2026-05-04 13:21 | 33.17128 | 32.29666 | 31420 ft | 418 kts | 298° |
| 2026-05-04 13:21 | 33.18776 | 32.26810 | 31656 ft | 417 kts | 298° |
| 2026-05-04 13:22 | 33.20420 | 32.23961 | 31890 ft | 417 kts | 298° |
| 2026-05-04 13:22 | 33.23709 | 32.18254 | 31953 ft | 414 kts | 298° |
| 2026-05-04 13:23 | 33.26970 | 32.12582 | 31947 ft | 413 kts | 298° |
| 2026-05-04 13:23 | 33.30229 | 32.06909 | 31954 ft | 414 kts | 298° |
| 2026-05-04 13:24 | 33.33465 | 32.01266 | 31959 ft | 414 kts | 298° |
| 2026-05-04 13:24 | 33.36723 | 31.95575 | 31960 ft | 415 kts | 298° |
| 2026-05-04 13:25 | 33.41681 | 31.86891 | 31962 ft | 432 kts | 299° |
| 2026-05-04 13:25 | 33.45128 | 31.80855 | 31969 ft | 442 kts | 299° |
| 2026-05-04 13:26 | 33.48611 | 31.74739 | 31975 ft | 444 kts | 299° |
| 2026-05-04 13:26 | 33.52095 | 31.68610 | 31958 ft | 445 kts | 299° |
| 2026-05-04 13:27 | 33.55554 | 31.62517 | 31958 ft | 445 kts | 299° |
| 2026-05-04 13:27 | 33.59026 | 31.56388 | 31952 ft | 444 kts | 299° |
| 2026-05-04 13:28 | 33.62494 | 31.50255 | 31950 ft | 444 kts | 299° |
| 2026-05-04 13:28 | 33.65964 | 31.44111 | 31956 ft | 444 kts | 299° |
| 2026-05-04 13:29 | 33.69432 | 31.37960 | 31956 ft | 444 kts | 299° |
| 2026-05-04 13:29 | 33.72896 | 31.31803 | 31954 ft | 444 kts | 299° |
| 2026-05-04 13:30 | 33.76362 | 31.25635 | 31951 ft | 445 kts | 299° |
| 2026-05-04 13:30 | 33.79800 | 31.19505 | 31951 ft | 446 kts | 300° |
| 2026-05-04 13:31 | 33.83268 | 31.13311 | 31949 ft | 446 kts | 300° |
| 2026-05-04 13:31 | 33.86733 | 31.07113 | 31950 ft | 446 kts | 300° |
| 2026-05-04 13:32 | 33.90194 | 31.00911 | 31948 ft | 446 kts | 300° |
| 2026-05-04 13:32 | 33.93650 | 30.94707 | 31947 ft | 446 kts | 300° |
| 2026-05-04 13:33 | 33.97101 | 30.88501 | 31950 ft | 446 kts | 300° |
| 2026-05-04 13:33 | 34.00556 | 30.82275 | 31948 ft | 447 kts | 300° |
| 2026-05-04 13:34 | 34.04012 | 30.76039 | 31950 ft | 448 kts | 300° |
| 2026-05-04 13:34 | 34.07468 | 30.69791 | 31944 ft | 449 kts | 300° |
| 2026-05-04 13:35 | 34.12660 | 30.60386 | 31946 ft | 450 kts | 300° |
| 2026-05-04 13:36 | 34.16101 | 30.54136 | 31945 ft | 450 kts | 300° |
| 2026-05-04 13:36 | 34.19565 | 30.47836 | 31947 ft | 451 kts | 300° |
| 2026-05-04 13:37 | 34.23035 | 30.41513 | 31945 ft | 452 kts | 300° |
| 2026-05-04 13:37 | 34.26505 | 30.35181 | 31948 ft | 452 kts | 300° |
| 2026-05-04 13:38 | 34.29978 | 30.28831 | 31947 ft | 453 kts | 300° |
| 2026-05-04 13:38 | 34.33456 | 30.22459 | 31943 ft | 454 kts | 300° |
| 2026-05-04 13:39 | 34.36946 | 30.16055 | 31948 ft | 456 kts | 300° |
| 2026-05-04 13:39 | 34.40414 | 30.09680 | 31941 ft | 456 kts | 300° |
| 2026-05-04 13:40 | 34.43910 | 30.03241 | 31943 ft | 458 kts | 300° |
| 2026-05-04 13:40 | 34.47936 | 29.97213 | 31946 ft | 464 kts | 311° |
| 2026-05-04 13:41 | 34.52472 | 29.91630 | 31939 ft | 465 kts | 310° |
| 2026-05-04 13:41 | 34.57013 | 29.86032 | 31948 ft | 466 kts | 311° |
| 2026-05-04 13:42 | 34.63845 | 29.77592 | 31934 ft | 468 kts | 311° |
| 2026-05-04 13:42 | 34.68406 | 29.71948 | 31936 ft | 468 kts | 311° |
| 2026-05-04 13:43 | 34.72973 | 29.66283 | 31939 ft | 470 kts | 311° |
| 2026-05-04 13:43 | 34.77553 | 29.60595 | 31941 ft | 471 kts | 311° |
| 2026-05-04 13:44 | 34.82142 | 29.54886 | 31942 ft | 473 kts | 311° |
| 2026-05-04 13:44 | 34.86758 | 29.49134 | 31943 ft | 475 kts | 311° |
| 2026-05-04 13:45 | 34.91381 | 29.43362 | 31943 ft | 476 kts | 312° |
| 2026-05-04 13:45 | 34.95985 | 29.37605 | 31943 ft | 478 kts | 312° |
| 2026-05-04 13:46 | 35.00840 | 29.32048 | 31944 ft | 482 kts | 320° |
| 2026-05-04 13:46 | 35.06222 | 29.27148 | 31947 ft | 483 kts | 321° |
| 2026-05-04 13:47 | 35.11609 | 29.22232 | 31943 ft | 484 kts | 321° |
| 2026-05-04 13:47 | 35.16098 | 29.18130 | 31937 ft | 485 kts | 321° |
| 2026-05-04 13:48 | 35.21500 | 29.13185 | 31941 ft | 485 kts | 321° |
| 2026-05-04 13:48 | 35.26898 | 29.08235 | 31943 ft | 485 kts | 321° |
| 2026-05-04 13:49 | 35.32312 | 29.03263 | 31945 ft | 485 kts | 321° |
| 2026-05-04 13:49 | 35.37710 | 28.98297 | 31941 ft | 485 kts | 321° |
| 2026-05-04 13:50 | 35.43087 | 28.93340 | 31942 ft | 486 kts | 321° |
| 2026-05-04 13:50 | 35.48498 | 28.88345 | 31944 ft | 486 kts | 322° |
| 2026-05-04 13:51 | 35.53909 | 28.83342 | 31944 ft | 486 kts | 322° |
| 2026-05-04 13:51 | 35.59313 | 28.78335 | 31944 ft | 486 kts | 322° |
| 2026-05-04 13:52 | 35.67404 | 28.70823 | 31949 ft | 486 kts | 322° |
| 2026-05-04 13:53 | 35.72797 | 28.65806 | 31952 ft | 486 kts | 322° |
| 2026-05-04 13:53 | 35.78191 | 28.60779 | 31949 ft | 486 kts | 322° |
| 2026-05-04 13:54 | 35.86265 | 28.53237 | 31954 ft | 485 kts | 322° |
| 2026-05-04 13:55 | 35.94349 | 28.45666 | 31954 ft | 487 kts | 323° |
| 2026-05-04 13:55 | 36.02429 | 28.38080 | 31961 ft | 486 kts | 323° |
| 2026-05-04 13:56 | 36.07789 | 28.33028 | 31964 ft | 486 kts | 323° |
| 2026-05-04 13:57 | 36.15853 | 28.25411 | 31981 ft | 486 kts | 323° |
| 2026-05-04 13:58 | 36.26609 | 28.15219 | 31995 ft | 488 kts | 323° |
| 2026-05-04 13:58 | 36.34659 | 28.07480 | 32005 ft | 490 kts | 320° |
| 2026-05-04 13:59 | 36.39757 | 28.01858 | 31999 ft | 490 kts | 319° |
| 2026-05-04 14:00 | 36.47430 | 27.93408 | 31997 ft | 492 kts | 319° |
| 2026-05-04 14:00 | 36.55098 | 27.84928 | 31996 ft | 492 kts | 319° |
| 2026-05-04 14:01 | 36.60214 | 27.79260 | 31994 ft | 493 kts | 319° |
| 2026-05-04 14:02 | 36.67885 | 27.70738 | 31996 ft | 493 kts | 319° |
| 2026-05-04 14:02 | 36.73199 | 27.65366 | 32004 ft | 493 kts | 328° |
| 2026-05-04 14:03 | 36.78983 | 27.60910 | 32010 ft | 492 kts | 328° |
| 2026-05-04 14:03 | 36.84631 | 27.56044 | 32007 ft | 493 kts | 327° |
| 2026-05-04 14:04 | 36.93219 | 27.48973 | 32004 ft | 493 kts | 327° |
| 2026-05-04 14:04 | 36.98905 | 27.44169 | 32009 ft | 493 kts | 327° |
| 2026-05-04 14:05 | 37.07464 | 27.37020 | 32018 ft | 493 kts | 327° |
| 2026-05-04 14:06 | 37.13166 | 27.32232 | 32025 ft | 494 kts | 327° |
| 2026-05-04 14:06 | 37.18885 | 27.27424 | 32026 ft | 496 kts | 327° |
| 2026-05-04 14:07 | 37.24620 | 27.22589 | 32024 ft | 497 kts | 327° |
| 2026-05-04 14:07 | 37.30117 | 27.17952 | 32025 ft | 499 kts | 327° |
| 2026-05-04 14:08 | 37.35916 | 27.13046 | 32021 ft | 499 kts | 327° |
| 2026-05-04 14:08 | 37.41643 | 27.08194 | 32021 ft | 500 kts | 327° |
| 2026-05-04 14:09 | 37.50296 | 27.00845 | 32033 ft | 501 kts | 327° |
| 2026-05-04 14:10 | 37.58949 | 26.93474 | 32040 ft | 500 kts | 328° |
| 2026-05-04 14:10 | 37.64716 | 26.88552 | 32043 ft | 500 kts | 328° |
| 2026-05-04 14:11 | 37.70479 | 26.83621 | 32041 ft | 500 kts | 328° |
| 2026-05-04 14:11 | 37.79108 | 26.76221 | 32036 ft | 500 kts | 328° |
| 2026-05-04 14:12 | 37.84881 | 26.71261 | 32035 ft | 501 kts | 328° |
| 2026-05-04 14:13 | 37.93550 | 26.63793 | 32036 ft | 503 kts | 328° |
| 2026-05-04 14:13 | 37.99334 | 26.58797 | 32038 ft | 504 kts | 328° |
| 2026-05-04 14:14 | 38.05128 | 26.53785 | 32044 ft | 504 kts | 328° |
| 2026-05-04 14:14 | 38.13795 | 26.46266 | 32054 ft | 505 kts | 328° |
| 2026-05-04 14:15 | 38.25416 | 26.36151 | 32093 ft | 506 kts | 328° |
| 2026-05-04 14:16 | 38.34139 | 26.28531 | 32098 ft | 507 kts | 328° |
| 2026-05-04 14:17 | 38.42655 | 26.21073 | 32098 ft | 507 kts | 328° |
| 2026-05-04 14:18 | 38.51354 | 26.13428 | 32085 ft | 508 kts | 328° |
| 2026-05-04 14:19 | 38.63030 | 26.03134 | 32066 ft | 510 kts | 328° |
| 2026-05-04 14:19 | 38.68875 | 25.97965 | 32062 ft | 511 kts | 328° |
| 2026-05-04 14:20 | 38.74725 | 25.92781 | 32065 ft | 511 kts | 328° |
| 2026-05-04 14:20 | 38.80582 | 25.87580 | 32070 ft | 512 kts | 328° |
| 2026-05-04 14:21 | 38.89341 | 25.79783 | 32070 ft | 514 kts | 328° |
| 2026-05-04 14:21 | 38.95221 | 25.74535 | 32068 ft | 515 kts | 328° |
| 2026-05-04 14:22 | 39.01102 | 25.69275 | 32074 ft | 515 kts | 328° |
| 2026-05-04 14:22 | 39.06986 | 25.64002 | 32068 ft | 515 kts | 327° |
| 2026-05-04 14:23 | 39.15804 | 25.56080 | 32070 ft | 515 kts | 327° |
| 2026-05-04 14:24 | 39.21688 | 25.50779 | 32072 ft | 516 kts | 327° |
| 2026-05-04 14:24 | 39.27578 | 25.45462 | 32073 ft | 517 kts | 327° |
| 2026-05-04 14:25 | 39.33478 | 25.40124 | 32072 ft | 518 kts | 327° |
| 2026-05-04 14:25 | 39.42294 | 25.32129 | 32075 ft | 518 kts | 327° |
| 2026-05-04 14:26 | 39.48197 | 25.26761 | 32071 ft | 519 kts | 327° |
| 2026-05-04 14:26 | 39.54117 | 25.21366 | 32071 ft | 520 kts | 327° |
| 2026-05-04 14:27 | 39.60035 | 25.15961 | 32078 ft | 521 kts | 327° |
| 2026-05-04 14:27 | 39.65958 | 25.10541 | 32077 ft | 521 kts | 327° |
| 2026-05-04 14:28 | 39.71886 | 25.05103 | 32081 ft | 521 kts | 327° |
| 2026-05-04 14:28 | 39.77816 | 24.99653 | 32080 ft | 522 kts | 327° |
| 2026-05-04 14:29 | 39.89677 | 24.88716 | 32068 ft | 522 kts | 327° |
| 2026-05-04 14:30 | 39.95593 | 24.83243 | 32064 ft | 522 kts | 327° |
| 2026-05-04 14:31 | 40.04442 | 24.75035 | 32062 ft | 523 kts | 327° |
| 2026-05-04 14:32 | 40.16297 | 24.63996 | 32063 ft | 524 kts | 327° |
| 2026-05-04 14:32 | 40.22235 | 24.58449 | 32057 ft | 524 kts | 327° |
| 2026-05-04 14:33 | 40.28174 | 24.52889 | 32056 ft | 525 kts | 326° |
| 2026-05-04 14:33 | 40.34117 | 24.47313 | 32053 ft | 526 kts | 326° |
| 2026-05-04 14:34 | 40.39066 | 24.42659 | 32057 ft | 527 kts | 326° |
| 2026-05-04 14:34 | 40.45019 | 24.37050 | 32053 ft | 527 kts | 326° |
| 2026-05-04 14:35 | 40.50981 | 24.31420 | 32050 ft | 527 kts | 326° |
| 2026-05-04 14:35 | 40.56934 | 24.25787 | 32046 ft | 527 kts | 326° |
| 2026-05-04 14:36 | 40.62886 | 24.20141 | 32062 ft | 527 kts | 326° |
| 2026-05-04 14:36 | 40.68831 | 24.14490 | 32057 ft | 527 kts | 326° |
| 2026-05-04 14:37 | 40.74777 | 24.08825 | 32052 ft | 527 kts | 326° |
| 2026-05-04 14:37 | 40.80720 | 24.03151 | 32046 ft | 527 kts | 326° |
| 2026-05-04 14:38 | 40.86668 | 23.97458 | 32040 ft | 527 kts | 326° |
| 2026-05-04 14:38 | 40.92576 | 23.91791 | 32047 ft | 528 kts | 326° |
| 2026-05-04 14:39 | 40.98529 | 23.86067 | 32039 ft | 529 kts | 325° |
| 2026-05-04 14:39 | 41.04477 | 23.80332 | 32040 ft | 529 kts | 325° |
| 2026-05-04 14:40 | 41.13395 | 23.71713 | 32044 ft | 528 kts | 324° |
| 2026-05-04 14:40 | 41.19347 | 23.65950 | 32046 ft | 530 kts | 325° |
| 2026-05-04 14:41 | 41.25308 | 23.60159 | 32051 ft | 530 kts | 324° |
| 2026-05-04 14:42 | 41.37143 | 23.48624 | 32051 ft | 528 kts | 324° |
| 2026-05-04 14:42 | 41.43379 | 23.43509 | 32067 ft | 527 kts | 335° |
| 2026-05-04 14:43 | 41.49982 | 23.39256 | 32073 ft | 526 kts | 335° |
| 2026-05-04 14:43 | 41.56552 | 23.34941 | 32071 ft | 526 kts | 335° |
| 2026-05-04 14:44 | 41.63123 | 23.30650 | 32077 ft | 525 kts | 335° |
| 2026-05-04 14:44 | 41.69634 | 23.26370 | 32075 ft | 526 kts | 334° |
| 2026-05-04 14:45 | 41.76210 | 23.22061 | 32078 ft | 526 kts | 335° |
| 2026-05-04 14:45 | 41.82779 | 23.17726 | 32074 ft | 525 kts | 334° |
| 2026-05-04 14:46 | 41.89349 | 23.13391 | 32077 ft | 526 kts | 335° |
| 2026-05-04 14:46 | 41.95930 | 23.09034 | 32077 ft | 527 kts | 334° |
| 2026-05-04 14:47 | 42.02517 | 23.04663 | 32072 ft | 527 kts | 335° |
| 2026-05-04 14:47 | 42.09053 | 23.00317 | 32074 ft | 528 kts | 335° |
| 2026-05-04 14:48 | 42.15642 | 22.95925 | 32073 ft | 527 kts | 335° |
| 2026-05-04 14:48 | 42.22216 | 22.91532 | 32077 ft | 527 kts | 334° |
| 2026-05-04 14:49 | 42.28787 | 22.87134 | 32076 ft | 527 kts | 334° |
| 2026-05-04 14:49 | 42.35345 | 22.82729 | 32083 ft | 525 kts | 334° |
| 2026-05-04 14:50 | 42.41887 | 22.78329 | 32081 ft | 524 kts | 334° |
| 2026-05-04 14:50 | 42.48422 | 22.73923 | 32084 ft | 524 kts | 334° |
| 2026-05-04 14:51 | 42.54901 | 22.69542 | 32083 ft | 523 kts | 334° |
| 2026-05-04 14:51 | 42.61405 | 22.65135 | 32085 ft | 521 kts | 334° |
| 2026-05-04 14:52 | 42.67884 | 22.60736 | 32089 ft | 519 kts | 334° |
| 2026-05-04 14:52 | 42.74330 | 22.56348 | 32091 ft | 517 kts | 334° |
| 2026-05-04 14:53 | 42.80756 | 22.51963 | 32100 ft | 516 kts | 334° |
| 2026-05-04 14:53 | 42.86859 | 22.46888 | 32117 ft | 515 kts | 322° |
| 2026-05-04 14:54 | 42.92383 | 22.40781 | 32093 ft | 514 kts | 322° |
| 2026-05-04 14:54 | 42.97937 | 22.34661 | 32091 ft | 513 kts | 322° |
| 2026-05-04 14:55 | 43.03475 | 22.28533 | 32100 ft | 512 kts | 322° |
| 2026-05-04 14:55 | 43.08997 | 22.22408 | 32098 ft | 509 kts | 322° |
| 2026-05-04 14:56 | 43.14492 | 22.16303 | 32099 ft | 508 kts | 322° |
| 2026-05-04 14:56 | 43.19967 | 22.10200 | 32099 ft | 506 kts | 322° |
| 2026-05-04 14:57 | 43.25432 | 22.04098 | 32097 ft | 505 kts | 322° |
| 2026-05-04 14:57 | 43.30875 | 21.98005 | 32098 ft | 505 kts | 322° |
| 2026-05-04 14:58 | 43.36303 | 21.91914 | 32097 ft | 503 kts | 322° |
| 2026-05-04 14:58 | 43.41714 | 21.85827 | 32098 ft | 502 kts | 323° |
| 2026-05-04 14:59 | 43.47102 | 21.79751 | 32094 ft | 500 kts | 323° |
| 2026-05-04 15:00 | 43.55133 | 21.70670 | 32090 ft | 499 kts | 323° |
| 2026-05-04 15:00 | 43.60498 | 21.64585 | 32092 ft | 499 kts | 323° |
| 2026-05-04 15:01 | 43.68525 | 21.55452 | 32090 ft | 497 kts | 323° |
| 2026-05-04 15:01 | 43.73861 | 21.49366 | 32091 ft | 497 kts | 323° |
| 2026-05-04 15:02 | 43.79183 | 21.43277 | 32089 ft | 496 kts | 323° |
| 2026-05-04 15:02 | 43.84471 | 21.37216 | 32093 ft | 496 kts | 323° |
| 2026-05-04 15:03 | 43.89784 | 21.31110 | 32094 ft | 496 kts | 323° |
| 2026-05-04 15:03 | 43.95097 | 21.24989 | 32087 ft | 496 kts | 323° |
| 2026-05-04 15:04 | 44.00399 | 21.18867 | 32097 ft | 495 kts | 322° |
| 2026-05-04 15:04 | 44.05680 | 21.12754 | 32096 ft | 494 kts | 322° |
| 2026-05-04 15:05 | 44.10956 | 21.06633 | 32087 ft | 493 kts | 322° |
| 2026-05-04 15:05 | 44.16216 | 21.00515 | 32095 ft | 493 kts | 322° |
| 2026-05-04 15:06 | 44.21475 | 20.94383 | 32090 ft | 492 kts | 322° |
| 2026-05-04 15:07 | 44.29321 | 20.85209 | 32092 ft | 492 kts | 322° |
| 2026-05-04 15:07 | 44.34591 | 20.79146 | 32094 ft | 491 kts | 323° |
| 2026-05-04 15:08 | 44.39876 | 20.73104 | 32089 ft | 491 kts | 323° |
| 2026-05-04 15:08 | 44.45192 | 20.67091 | 32085 ft | 491 kts | 323° |
| 2026-05-04 15:09 | 44.50496 | 20.61044 | 32089 ft | 492 kts | 323° |
| 2026-05-04 15:09 | 44.55804 | 20.54988 | 32082 ft | 493 kts | 323° |
| 2026-05-04 15:10 | 44.63782 | 20.45850 | 32077 ft | 493 kts | 323° |
| 2026-05-04 15:11 | 44.71725 | 20.36735 | 32068 ft | 494 kts | 323° |
| 2026-05-04 15:11 | 44.77039 | 20.30607 | 32066 ft | 494 kts | 322° |
| 2026-05-04 15:12 | 44.82352 | 20.24472 | 32069 ft | 494 kts | 322° |
| 2026-05-04 15:12 | 44.87668 | 20.18316 | 32066 ft | 494 kts | 322° |
| 2026-05-04 15:13 | 44.92982 | 20.12147 | 32066 ft | 494 kts | 322° |
| 2026-05-04 15:13 | 44.98246 | 20.06021 | 32075 ft | 494 kts | 322° |
| 2026-05-04 15:14 | 45.03554 | 19.99828 | 32077 ft | 494 kts | 322° |
| 2026-05-04 15:14 | 45.08854 | 19.93630 | 32071 ft | 494 kts | 322° |
| 2026-05-04 15:15 | 45.14154 | 19.87416 | 32074 ft | 494 kts | 322° |
| 2026-05-04 15:15 | 45.19452 | 19.81190 | 32076 ft | 495 kts | 322° |
| 2026-05-04 15:16 | 45.27363 | 19.71862 | 32063 ft | 495 kts | 322° |
| 2026-05-04 15:17 | 45.35308 | 19.62459 | 32064 ft | 496 kts | 322° |
| 2026-05-04 15:17 | 45.43250 | 19.53024 | 32060 ft | 495 kts | 321° |
| 2026-05-04 15:18 | 45.48534 | 19.46728 | 32060 ft | 495 kts | 321° |
| 2026-05-04 15:19 | 45.56452 | 19.37261 | 32057 ft | 495 kts | 321° |
| 2026-05-04 15:19 | 45.64388 | 19.27738 | 32055 ft | 497 kts | 321° |
| 2026-05-04 15:20 | 45.69648 | 19.21405 | 32057 ft | 497 kts | 321° |
| 2026-05-04 15:20 | 45.74936 | 19.15023 | 32054 ft | 497 kts | 321° |
| 2026-05-04 15:21 | 45.80221 | 19.08628 | 32050 ft | 497 kts | 321° |
| 2026-05-04 15:22 | 45.88139 | 18.99015 | 32050 ft | 497 kts | 321° |
| 2026-05-04 15:22 | 45.95981 | 18.89250 | 32050 ft | 498 kts | 319° |
| 2026-05-04 15:23 | 46.00305 | 18.83799 | 32048 ft | 498 kts | 320° |
| 2026-05-04 15:23 | 46.05477 | 18.77147 | 32045 ft | 498 kts | 319° |
| 2026-05-04 15:24 | 46.15825 | 18.63850 | 32046 ft | 499 kts | 319° |
| 2026-05-04 15:25 | 46.21002 | 18.57167 | 32047 ft | 499 kts | 319° |
| 2026-05-04 15:26 | 46.28765 | 18.47113 | 32064 ft | 500 kts | 319° |
| 2026-05-04 15:26 | 46.36527 | 18.37023 | 32055 ft | 500 kts | 319° |
| 2026-05-04 15:27 | 46.44243 | 18.26950 | 32055 ft | 500 kts | 318° |
| 2026-05-04 15:28 | 46.51988 | 18.16798 | 32036 ft | 500 kts | 318° |
| 2026-05-04 15:29 | 46.59734 | 18.06605 | 32051 ft | 500 kts | 318° |
| 2026-05-04 15:30 | 46.77758 | 17.82727 | 32048 ft | 502 kts | 318° |
| 2026-05-04 15:31 | 46.85503 | 17.72398 | 32045 ft | 503 kts | 317° |
| 2026-05-04 15:32 | 46.98387 | 17.55120 | 32041 ft | 502 kts | 317° |
| 2026-05-04 15:34 | 47.11210 | 17.37805 | 32030 ft | 501 kts | 317° |
| 2026-05-04 15:34 | 47.18883 | 17.27387 | 32016 ft | 500 kts | 317° |
| 2026-05-04 15:35 | 47.26513 | 17.16986 | 32015 ft | 500 kts | 317° |
| 2026-05-04 15:36 | 47.34188 | 17.06479 | 32014 ft | 500 kts | 317° |
| 2026-05-04 15:36 | 47.39249 | 16.99527 | 32005 ft | 500 kts | 317° |
| 2026-05-04 15:37 | 47.44338 | 16.92518 | 32011 ft | 500 kts | 317° |
| 2026-05-04 15:37 | 47.49409 | 16.85512 | 32004 ft | 499 kts | 316° |
| 2026-05-04 15:38 | 47.54483 | 16.78485 | 31983 ft | 499 kts | 316° |
| 2026-05-04 15:38 | 47.59729 | 16.71778 | 31998 ft | 498 kts | 321° |
| 2026-05-04 15:39 | 47.65147 | 16.65355 | 31975 ft | 497 kts | 321° |
| 2026-05-04 15:40 | 47.73221 | 16.55681 | 31970 ft | 497 kts | 321° |
| 2026-05-04 15:40 | 47.78570 | 16.49266 | 31966 ft | 497 kts | 320° |
| 2026-05-04 15:41 | 47.83958 | 16.42779 | 31962 ft | 497 kts | 320° |
| 2026-05-04 15:41 | 47.89340 | 16.36286 | 31961 ft | 498 kts | 320° |
| 2026-05-04 15:42 | 47.94719 | 16.29775 | 31957 ft | 498 kts | 320° |
| 2026-05-04 15:42 | 48.00089 | 16.23260 | 31953 ft | 498 kts | 320° |
| 2026-05-04 15:43 | 48.05470 | 16.16710 | 31946 ft | 499 kts | 320° |
| 2026-05-04 15:43 | 48.10818 | 16.10186 | 31945 ft | 500 kts | 320° |
| 2026-05-04 15:44 | 48.16208 | 16.03590 | 31950 ft | 500 kts | 320° |
| 2026-05-04 15:44 | 48.21598 | 15.96976 | 31942 ft | 500 kts | 320° |
| 2026-05-04 15:45 | 48.26990 | 15.90340 | 31942 ft | 501 kts | 319° |
| 2026-05-04 15:45 | 48.32373 | 15.83698 | 31939 ft | 501 kts | 319° |
| 2026-05-04 15:46 | 48.37744 | 15.77051 | 31942 ft | 501 kts | 319° |
| 2026-05-04 15:46 | 48.43137 | 15.70359 | 31948 ft | 501 kts | 319° |
| 2026-05-04 15:47 | 48.48509 | 15.63673 | 31949 ft | 501 kts | 319° |
| 2026-05-04 15:47 | 48.53878 | 15.56973 | 31955 ft | 501 kts | 319° |
| 2026-05-04 15:48 | 48.59207 | 15.50303 | 31949 ft | 501 kts | 319° |
| 2026-05-04 15:48 | 48.67263 | 15.40184 | 31960 ft | 502 kts | 319° |
| 2026-05-04 15:49 | 48.72642 | 15.33403 | 31959 ft | 502 kts | 319° |
| 2026-05-04 15:49 | 48.78009 | 15.26618 | 31961 ft | 502 kts | 318° |
| 2026-05-04 15:50 | 48.83367 | 15.19825 | 31960 ft | 501 kts | 318° |
| 2026-05-04 15:50 | 48.88660 | 15.12947 | 31966 ft | 500 kts | 313° |
| 2026-05-04 15:51 | 48.92759 | 15.04498 | 31959 ft | 496 kts | 301° |
| 2026-05-04 15:51 | 48.96393 | 14.95640 | 31957 ft | 496 kts | 300° |
| 2026-05-04 15:52 | 49.00053 | 14.86727 | 31959 ft | 497 kts | 301° |
| 2026-05-04 15:52 | 49.03699 | 14.77808 | 31957 ft | 496 kts | 300° |
| 2026-05-04 15:53 | 49.07343 | 14.68864 | 31957 ft | 496 kts | 300° |
| 2026-05-04 15:53 | 49.10973 | 14.59927 | 31961 ft | 496 kts | 300° |
| 2026-05-04 15:54 | 49.14596 | 14.50974 | 31959 ft | 495 kts | 300° |
| 2026-05-04 15:54 | 49.18208 | 14.42018 | 31962 ft | 495 kts | 300° |
| 2026-05-04 15:55 | 49.21815 | 14.33047 | 31964 ft | 495 kts | 300° |
| 2026-05-04 15:55 | 49.25392 | 14.24119 | 31964 ft | 495 kts | 300° |
| 2026-05-04 15:56 | 49.28980 | 14.15131 | 31963 ft | 495 kts | 300° |
| 2026-05-04 15:56 | 49.32563 | 14.06128 | 31963 ft | 495 kts | 299° |
| 2026-05-04 15:57 | 49.36142 | 13.97104 | 31953 ft | 495 kts | 299° |
| 2026-05-04 15:57 | 49.39719 | 13.88052 | 31953 ft | 495 kts | 299° |
| 2026-05-04 15:58 | 49.43537 | 13.79316 | 31956 ft | 498 kts | 307° |
| 2026-05-04 15:58 | 49.47931 | 13.71081 | 31956 ft | 498 kts | 307° |
| 2026-05-04 15:59 | 49.52320 | 13.62814 | 31963 ft | 499 kts | 307° |
| 2026-05-04 15:59 | 49.56712 | 13.54519 | 31970 ft | 499 kts | 307° |
| 2026-05-04 16:00 | 49.61095 | 13.46215 | 31973 ft | 500 kts | 306° |
| 2026-05-04 16:00 | 49.65482 | 13.37877 | 31975 ft | 500 kts | 306° |
| 2026-05-04 16:01 | 49.69863 | 13.29524 | 31977 ft | 500 kts | 306° |
| 2026-05-04 16:01 | 49.74237 | 13.21156 | 31976 ft | 500 kts | 306° |
| 2026-05-04 16:02 | 49.78606 | 13.12774 | 31971 ft | 499 kts | 306° |
| 2026-05-04 16:03 | 49.85113 | 13.00236 | 31970 ft | 500 kts | 306° |
| 2026-05-04 16:03 | 49.89463 | 12.91824 | 31968 ft | 499 kts | 306° |
| 2026-05-04 16:04 | 49.93798 | 12.83412 | 31971 ft | 499 kts | 306° |
| 2026-05-04 16:04 | 50.00292 | 12.70753 | 31951 ft | 503 kts | 307° |
| 2026-05-04 16:05 | 50.04665 | 12.62209 | 32004 ft | 505 kts | 306° |
| 2026-05-04 16:06 | 50.11087 | 12.49587 | 31972 ft | 499 kts | 305° |
| 2026-05-04 16:07 | 50.19067 | 12.32002 | 31976 ft | 493 kts | 290° |
| 2026-05-04 16:08 | 50.22591 | 12.11418 | 31970 ft | 490 kts | 281° |
| 2026-05-04 16:09 | 50.26616 | 11.85589 | 31976 ft | 490 kts | 281° |
| 2026-05-04 16:10 | 50.29810 | 11.64859 | 31979 ft | 490 kts | 281° |
| 2026-05-04 16:11 | 50.32662 | 11.45829 | 31973 ft | 491 kts | 281° |
| 2026-05-04 16:12 | 50.37260 | 11.14600 | 31982 ft | 490 kts | 281° |
| 2026-05-04 16:13 | 50.40270 | 10.93820 | 31985 ft | 490 kts | 280° |
| 2026-05-04 16:14 | 50.43251 | 10.72953 | 31989 ft | 490 kts | 280° |
| 2026-05-04 16:16 | 50.46991 | 10.46950 | 31985 ft | 489 kts | 280° |
| 2026-05-04 16:17 | 50.50643 | 10.20840 | 31977 ft | 489 kts | 279° |
| 2026-05-04 16:18 | 50.53657 | 9.99953 | 31985 ft | 492 kts | 286° |
| 2026-05-04 16:19 | 50.59077 | 9.86178 | 31980 ft | 504 kts | 306° |
| 2026-05-04 16:19 | 50.63557 | 9.77707 | 31960 ft | 504 kts | 306° |
| 2026-05-04 16:20 | 50.74746 | 9.56339 | 31965 ft | 506 kts | 306° |
| 2026-05-04 16:22 | 50.85949 | 9.34821 | 31952 ft | 508 kts | 305° |
| 2026-05-04 16:23 | 50.99366 | 9.08809 | 31956 ft | 509 kts | 305° |
| 2026-05-04 16:25 | 51.12717 | 8.82661 | 31959 ft | 509 kts | 304° |
| 2026-05-04 16:26 | 51.28268 | 8.51844 | 31983 ft | 510 kts | 304° |
| 2026-05-04 16:28 | 51.40291 | 8.30970 | 31980 ft | 514 kts | 310° |
| 2026-05-04 16:28 | 51.47846 | 8.18874 | 31503 ft | 504 kts | 310° |
| 2026-05-04 16:29 | 51.57640 | 8.03106 | 30104 ft | 495 kts | 310° |
| 2026-05-04 16:30 | 51.64882 | 7.91383 | 28932 ft | 488 kts | 310° |
| 2026-05-04 16:31 | 51.69699 | 7.83544 | 28191 ft | 504 kts | 310° |
| 2026-05-04 16:31 | 51.77107 | 7.71472 | 27239 ft | 503 kts | 310° |
| 2026-05-04 16:32 | 51.84398 | 7.59507 | 26350 ft | 497 kts | 310° |
| 2026-05-04 16:33 | 51.89236 | 7.51542 | 25749 ft | 493 kts | 310° |
| 2026-05-04 16:33 | 51.94025 | 7.43629 | 25154 ft | 489 kts | 310° |
| 2026-05-04 16:34 | 51.98770 | 7.35765 | 24971 ft | 488 kts | 310° |
| 2026-05-04 16:34 | 52.01147 | 7.31814 | 24727 ft | 487 kts | 310° |
| 2026-05-04 16:35 | 52.08181 | 7.20092 | 24020 ft | 482 kts | 310° |
| 2026-05-04 16:35 | 52.15170 | 7.08388 | 23300 ft | 479 kts | 310° |
| 2026-05-04 16:36 | 52.17450 | 7.04463 | 23026 ft | 474 kts | 306° |
| 2026-05-04 16:36 | 52.20634 | 6.95327 | 22513 ft | 459 kts | 285° |
| 2026-05-04 16:37 | 52.21629 | 6.85234 | 22009 ft | 447 kts | 268° |
| 2026-05-04 16:37 | 52.21662 | 6.80186 | 21761 ft | 446 kts | 268° |
| 2026-05-04 16:37 | 52.21703 | 6.70098 | 21255 ft | 443 kts | 268° |
| 2026-05-04 16:38 | 52.21743 | 6.60095 | 20748 ft | 440 kts | 268° |
| 2026-05-04 16:39 | 52.21783 | 6.45244 | 19907 ft | 436 kts | 268° |
| 2026-05-04 16:39 | 52.21806 | 6.35904 | 18835 ft | 380 kts | 267° |
| 2026-05-04 16:40 | 52.21806 | 6.27648 | 17792 ft | 358 kts | 267° |
| 2026-05-04 16:40 | 52.21809 | 6.19550 | 16742 ft | 355 kts | 268° |
| 2026-05-04 16:41 | 52.21807 | 6.11535 | 15732 ft | 352 kts | 268° |
| 2026-05-04 16:41 | 52.21792 | 5.99656 | 14281 ft | 346 kts | 268° |
| 2026-05-04 16:42 | 52.21767 | 5.88090 | 12827 ft | 328 kts | 268° |
| 2026-05-04 16:43 | 52.21745 | 5.80889 | 11886 ft | 305 kts | 268° |
| 2026-05-04 16:43 | 52.21720 | 5.74208 | 10996 ft | 289 kts | 268° |
| 2026-05-04 16:43 | 52.21707 | 5.70968 | 10550 ft | 283 kts | 268° |
| 2026-05-04 16:44 | 52.21648 | 5.58463 | 8782 ft | 269 kts | 268° |
| 2026-05-04 16:45 | 52.21615 | 5.52413 | 7943 ft | 263 kts | 268° |
| 2026-05-04 16:46 | 52.21561 | 5.43638 | 7204 ft | 258 kts | 268° |
| 2026-05-04 16:46 | 52.21522 | 5.37780 | 6731 ft | 258 kts | 268° |
| 2026-05-04 16:47 | 52.21483 | 5.32361 | 6286 ft | 259 kts | 268° |
| 2026-05-04 16:47 | 52.21439 | 5.26552 | 5977 ft | 252 kts | 268° |
| 2026-05-04 16:48 | 52.21369 | 5.18116 | 5532 ft | 244 kts | 268° |
| 2026-05-04 16:48 | 52.21345 | 5.15360 | 5397 ft | 242 kts | 268° |
| 2026-05-04 16:49 | 52.21294 | 5.09818 | 5127 ft | 247 kts | 268° |
| 2026-05-04 16:49 | 52.21241 | 5.04221 | 4865 ft | 246 kts | 268° |
| 2026-05-04 16:50 | 52.21185 | 4.98689 | 4593 ft | 245 kts | 268° |
| 2026-05-04 16:50 | 52.21127 | 4.93144 | 4313 ft | 244 kts | 268° |
| 2026-05-04 16:51 | 52.21066 | 4.87608 | 3972 ft | 243 kts | 268° |
| 2026-05-04 16:51 | 52.21035 | 4.84856 | 3797 ft | 242 kts | 268° |
| 2026-05-04 16:51 | 52.20972 | 4.79426 | 3537 ft | 237 kts | 268° |
| 2026-05-04 16:52 | 52.20908 | 4.74115 | 3272 ft | 232 kts | 267° |
| 2026-05-04 16:52 | 52.20877 | 4.71558 | 3089 ft | 212 kts | 267° |
| 2026-05-04 16:53 | 52.20822 | 4.67233 | 2614 ft | 180 kts | 267° |
| 2026-05-04 16:53 | 52.20256 | 4.61227 | 2088 ft | 182 kts | 234° |
| 2026-05-04 16:54 | 52.19580 | 4.59511 | 1959 ft | 180 kts | 251° |
| 2026-05-04 16:55 | 52.22348 | 4.54689 | 1982 ft | 165 kts | 353° |
| 2026-05-04 16:55 | 52.24568 | 4.55148 | 1495 ft | 169 kts | 25° |
| 2026-05-04 16:56 | 52.25777 | 4.58147 | 810 ft | 146 kts | 76° |
| 2026-05-04 16:56 | 52.25257 | 4.62868 | 1190 ft | 145 kts | 97° |
| 2026-05-04 16:57 | 52.25326 | 4.64604 | 1639 ft | 165 kts | 81° |
| 2026-05-04 16:57 | 52.26462 | 4.67929 | 1528 ft | 175 kts | 47° |
| 2026-05-04 16:58 | 52.28453 | 4.72441 | 206 ft | 142 kts | 56° |
| 2026-05-04 16:58 | 52.28933 | 4.73745 | 11 ft | 123 kts | 56° |
| 2026-05-04 16:59 | 52.29593 | 4.75488 | 5 ft | 68 kts | 58° |
| 2026-05-04 17:00 | 52.30261 | 4.76741 | 5 ft | 25 kts | 33° |
| 2026-05-04 17:00 | 52.30572 | 4.77492 | 6 ft | 23 kts | 47° |
| 2026-05-04 17:01 | 52.30804 | 4.77600 | 6 ft | 21 kts | 3° |
| 2026-05-04 17:01 | 52.31091 | 4.77636 | 6 ft | 21 kts | 3° |
| 2026-05-04 17:02 | 52.31376 | 4.77658 | 6 ft | 20 kts | 357° |
| 2026-05-04 17:02 | 52.31584 | 4.77382 | 5 ft | 20 kts | 287° |
| 2026-05-04 17:03 | 52.31569 | 4.77174 | 5 ft | 20 kts | 260° |
| 2026-05-04 17:03 | 52.31561 | 4.76933 | 5 ft | 22 kts | 272° |
| 2026-05-04 17:03 | 52.31545 | 4.76385 | 6 ft | 25 kts | 267° |
| 2026-05-04 17:04 | 52.31517 | 4.75951 | 6 ft | 9 kts | 231° |
| 2026-05-04 17:04 | 52.31448 | 4.75928 | 6 ft | 9 kts | 175° |
| 2026-05-04 17:05 | 52.31328 | 4.75935 | 5 ft | 5 kts | 194° |
| 2026-05-04 17:05 | 52.31301 | 4.75882 | 5 ft | 4 kts | 250° |
| 2026-05-04 17:06 | 52.31297 | 4.75818 | 5 ft | 0 kts | 268° |